Terminal Aerodrome Forecast
Issued by NWS Paducah, KY

Home | Current Version | Previous Version | Text Only | Print | Product List | Glossary On
Versions: 1 2 3 4 5 6 7 8 9 10 11 12 13 14 15 16 17 18 19 20 21 22
000
FTUS43 KPAH 201900 AAA
TAFPAH
TAF AMD
KPAH 201917Z 2019/2118 VRB02KT P6SM SCT060
      TEMPO 2019/2021 BKN060
     FM210100 10003KT P6SM SCT250=

USA.gov is the U.S. government's official web portal to all federal, state and local government web resources and services.